Time;durP1;ratioP1;P1;durP2;ratioP2;P2;SDS_P1;SDS_P2;PMS_P1;PMS_P2;Temp;Humidity;BMP_temperature;BMP_pressure;BME280_temperature;BME280_humidity;BME280_pressure;Samples;Min_cycle;Max_cycle;Signal;HPM_P1;HPM_P2
2022/11/23 00:01:36;;;;;;;15.07;9.93;;;205.70;2252.80;;;;;;4974991;28;20026;-62
2022/11/23 00:04:07;;;;;;;16.23;10.57;;;230.40;2252.80;;;;;;4973671;28;20059;-66
2022/11/23 00:06:34;;;;;;;17.75;10.32;;;205.70;2252.80;;;;;;4974140;28;20499;-67
2022/11/23 00:08:59;;;;;;;16.02;10.20;;;205.70;2252.80;;;;;;4974687;28;20039;-66
2022/11/23 00:11:26;;;;;;;16.20;10.10;;;205.70;2252.80;;;;;;4973879;28;20114;-67
2022/11/23 00:13:53;;;;;;;16.02;10.13;;;205.70;2252.80;;;;;;4973715;28;20031;-65
2022/11/23 00:16:21;;;;;;;13.63;9.50;;;205.70;2252.80;;;;;;4973319;28;20086;-68
2022/11/23 00:18:50;;;;;;;12.85;8.93;;;205.70;2252.80;;;;;;4974543;28;20461;-67
2022/11/23 00:21:17;;;;;;;13.82;9.20;;;205.60;2252.80;;;;;;4961791;28;20160;-65
2022/11/23 00:23:43;;;;;;;15.18;9.48;;;205.70;2252.80;;;;;;4962799;28;20039;-69
2022/11/23 00:26:10;;;;;;;11.88;8.35;;;205.70;2252.80;;;;;;4993361;28;20022;-66
2022/11/23 00:28:38;;;;;;;13.50;8.98;;;205.70;2252.80;;;;;;4994077;28;20117;-66
2022/11/23 00:31:12;;;;;;;13.18;8.98;;;205.70;2252.80;;;;;;4993336;28;20112;-67
2022/11/23 00:33:38;;;;;;;15.60;9.55;;;205.70;2252.80;;;;;;4958686;28;20031;-66
2022/11/23 00:36:13;;;;;;;14.35;8.52;;;230.40;2252.80;;;;;;4956748;28;20035;-66
2022/11/23 00:38:40;;;;;;;16.05;8.80;;;230.40;2252.80;;;;;;4993413;28;20081;-66
2022/11/23 00:41:09;;;;;;;14.27;8.15;;;230.40;2252.80;;;;;;4974310;28;20035;-66
2022/11/23 00:43:34;;;;;;;13.32;8.75;;;205.70;2252.80;;;;;;4973882;28;20034;-66
2022/11/23 00:46:17;;;;;;;12.38;7.97;;;205.70;2252.80;;;;;;4974659;28;20035;-66
2022/11/23 00:48:45;;;;;;;13.27;8.32;;;205.70;2252.80;;;;;;4973787;28;20473;-66
2022/11/23 00:51:14;;;;;;;12.93;8.38;;;205.70;2252.80;;;;;;4973917;28;20109;-66
2022/11/23 00:53:40;;;;;;;11.38;8.05;;;205.70;2252.80;;;;;;4974474;28;20482;-64
2022/11/23 00:56:06;;;;;;;11.10;7.85;;;205.70;2252.80;;;;;;4972630;28;20086;-65
2022/11/23 00:58:33;;;;;;;11.98;7.90;;;230.40;2252.80;;;;;;4974034;28;20042;-65
2022/11/23 01:01:01;;;;;;;14.05;7.82;;;230.40;2252.80;;;;;;4973791;28;20031;-65
2022/11/23 01:03:29;;;;;;;11.88;7.78;;;230.40;2252.80;;;;;;4973970;28;20038;-64
2022/11/23 01:05:55;;;;;;;11.40;7.55;;;230.40;2252.80;;;;;;4972449;28;20033;-65
2022/11/23 01:08:20;;;;;;;12.15;7.95;;;230.40;2252.80;;;;;;4974137;28;20039;-66
2022/11/23 01:10:46;;;;;;;11.63;7.53;;;230.50;2252.80;;;;;;4973809;28;20078;-66
2022/11/23 01:13:12;;;;;;;12.02;7.80;;;230.50;2252.80;;;;;;4973498;28;20023;-64
2022/11/23 01:15:37;;;;;;;11.02;7.38;;;230.50;2252.80;;;;;;4973847;28;20027;-63
2022/11/23 01:18:03;;;;;;;13.93;8.55;;;230.50;2252.80;;;;;;4974215;28;20051;-67
2022/11/23 01:20:29;;;;;;;13.52;7.82;;;230.50;2252.80;;;;;;4973755;28;20027;-66
2022/11/23 01:22:55;;;;;;;12.48;7.80;;;230.50;2252.80;;;;;;4972953;28;20059;-65
2022/11/23 01:25:20;;;;;;;11.02;7.47;;;230.60;2252.80;;;;;;4973933;28;20508;-66
2022/11/23 01:27:46;;;;;;;12.00;7.88;;;230.60;2252.80;;;;;;4972498;28;20042;-65
2022/11/23 01:30:12;;;;;;;10.93;7.35;;;230.60;2252.80;;;;;;4973277;28;20031;-66
2022/11/23 01:32:38;;;;;;;12.25;7.68;;;230.70;2252.80;;;;;;4964834;28;20503;-64
2022/11/23 01:35:04;;;;;;;10.73;6.90;;;230.70;2252.80;;;;;;4967389;28;20031;-65
2022/11/23 01:37:30;;;;;;;10.20;6.97;;;230.70;2252.80;;;;;;4973363;28;20027;-66
2022/11/23 01:39:55;;;;;;;12.32;6.97;;;230.70;2252.80;;;;;;4973919;28;20572;-66
2022/11/23 01:42:21;;;;;;;13.65;7.68;;;230.70;2252.80;;;;;;4975514;28;20035;-66
2022/11/23 01:44:47;;;;;;;11.45;7.53;;;230.80;2252.80;;;;;;4977238;28;20034;-65
2022/11/23 01:47:13;;;;;;;11.68;7.15;;;230.80;2252.80;;;;;;4977469;28;20034;-64
2022/11/23 01:49:43;;;;;;;10.13;7.00;;;230.80;2252.80;;;;;;4976708;28;20389;-63
2022/11/23 01:52:14;;;;;;;9.88;6.55;;;230.80;2252.80;;;;;;4976563;28;20035;-66
2022/11/23 01:54:46;;;;;;;9.75;6.38;;;230.70;2252.80;;;;;;4976151;28;20070;-64
2022/11/23 01:57:18;;;;;;;10.20;6.38;;;230.70;2252.80;;;;;;4975817;28;20027;-65
2022/11/23 01:59:45;;;;;;;11.15;6.35;;;230.70;2252.80;;;;;;4956467;28;20130;-65
2022/11/23 02:02:13;;;;;;;11.38;6.63;;;230.60;2252.80;;;;;;4973841;28;20065;-65
2022/11/23 02:04:43;;;;;;;12.02;7.20;;;230.70;2252.80;;;;;;4974104;28;20062;-65
2022/11/23 02:07:09;;;;;;;16.38;9.18;;;230.60;2252.80;;;;;;4956979;28;20030;-65
2022/11/23 02:09:36;;;;;;;21.88;10.80;;;230.60;2252.80;;;;;;4973871;28;20049;-66
2022/11/23 02:12:01;;;;;;;22.33;10.80;;;230.60;2252.80;;;;;;4973489;28;20035;-65
2022/11/23 02:14:28;;;;;;;17.35;9.77;;;230.60;2252.80;;;;;;4974125;28;20090;-64
2022/11/23 02:16:57;;;;;;;18.85;9.88;;;230.60;2252.80;;;;;;4974284;28;20027;-64
2022/11/23 02:19:57;;;;;;;14.70;8.60;;;230.60;2252.80;;;;;;4973389;28;20485;-65
2022/11/23 02:22:37;;;;;;;10.90;7.00;;;230.60;2252.80;;;;;;4973883;28;20034;-63
2022/11/23 02:25:14;;;;;;;11.73;7.50;;;230.60;2252.80;;;;;;4979428;28;20029;-65
2022/11/23 02:27:41;;;;;;;12.48;7.90;;;230.60;2252.80;;;;;;4986378;28;20117;-66
2022/11/23 02:30:07;;;;;;;13.40;7.72;;;230.60;2252.80;;;;;;4979041;28;20090;-65
2022/11/23 02:32:34;;;;;;;11.45;7.15;;;230.60;2252.80;;;;;;4968100;28;20027;-64
2022/11/23 02:35:00;;;;;;;9.82;6.68;;;230.60;2252.80;;;;;;4976200;28;20035;-65
2022/11/23 02:37:25;;;;;;;12.32;7.05;;;230.60;2252.80;;;;;;4975833;28;20435;-66
2022/11/23 02:39:53;;;;;;;17.73;9.93;;;230.60;2252.80;;;;;;4976110;28;20071;-65
2022/11/23 02:42:19;;;;;;;37.95;19.77;;;230.60;2252.80;;;;;;4958412;28;20389;-64
2022/11/23 02:45:05;;;;;;;18.35;9.50;;;230.70;2252.80;;;;;;4974833;28;20042;-65
2022/11/23 02:47:31;;;;;;;52.92;26.65;;;230.70;2252.80;;;;;;4957996;28;20396;-64
2022/11/23 02:49:57;;;;;;;19.25;10.55;;;230.70;2252.80;;;;;;4958081;28;20488;-65
2022/11/23 02:52:23;;;;;;;29.05;15.85;;;230.70;2252.80;;;;;;4975371;28;20054;-65
2022/11/23 02:54:49;;;;;;;42.05;23.83;;;230.70;2252.80;;;;;;4978590;28;20038;-65
2022/11/23 02:57:15;;;;;;;33.10;18.55;;;230.70;2252.80;;;;;;4970075;28;20117;-64
2022/11/23 02:59:40;;;;;;;34.08;18.88;;;230.70;2252.80;;;;;;4992895;28;20026;-65
2022/11/23 03:02:06;;;;;;;31.35;18.08;;;230.80;2252.80;;;;;;4975820;28;20031;-63
2022/11/23 03:04:31;;;;;;;29.02;17.90;;;230.80;2252.80;;;;;;4975821;28;20532;-64
2022/11/23 03:06:58;;;;;;;20.23;11.98;;;230.80;2252.80;;;;;;4976294;28;20026;-65
2022/11/23 03:09:25;;;;;;;46.63;22.60;;;230.90;2252.80;;;;;;4975588;28;20034;-66
2022/11/23 03:11:51;;;;;;;38.47;19.85;;;230.90;2252.80;;;;;;4977101;28;20022;-66
2022/11/23 03:14:17;;;;;;;46.15;24.25;;;230.90;2252.80;;;;;;4975573;28;20041;-65
2022/11/23 03:16:43;;;;;;;37.17;19.80;;;230.90;2252.80;;;;;;4974419;28;20023;-66
2022/11/23 03:19:09;;;;;;;28.45;16.50;;;230.90;2252.80;;;;;;4975136;28;20046;-65
2022/11/23 03:21:35;;;;;;;22.75;13.77;;;230.80;2252.80;;;;;;4975747;28;20484;-66
2022/11/23 03:24:01;;;;;;;36.65;22.55;;;230.80;2252.80;;;;;;4976023;28;20023;-62
2022/11/23 03:26:26;;;;;;;27.40;16.35;;;230.80;2252.80;;;;;;4982296;28;20514;-65
2022/11/23 03:28:52;;;;;;;19.30;12.15;;;230.80;2252.80;;;;;;4981967;28;20492;-65
2022/11/23 03:31:18;;;;;;;13.68;9.73;;;230.80;2252.80;;;;;;4974421;28;20042;-65
2022/11/23 03:33:44;;;;;;;10.88;7.20;;;230.80;2252.80;;;;;;4974710;28;20504;-65
2022/11/23 03:36:09;;;;;;;13.57;8.57;;;230.90;2252.80;;;;;;4974067;28;20037;-65
2022/11/23 03:38:35;;;;;;;12.90;8.00;;;230.90;2252.80;;;;;;4974379;28;20441;-65
2022/11/23 03:41:01;;;;;;;11.95;7.90;;;230.90;2252.80;;;;;;4975097;28;20106;-65
2022/11/23 03:43:26;;;;;;;13.00;8.95;;;230.90;2252.80;;;;;;4959291;28;20030;-64
2022/11/23 03:45:52;;;;;;;13.63;9.60;;;230.90;2252.80;;;;;;4957890;28;20437;-67
2022/11/23 03:48:18;;;;;;;18.40;12.80;;;230.80;2252.80;;;;;;4975209;28;20039;-66
2022/11/23 03:50:44;;;;;;;12.98;7.55;;;230.80;2252.80;;;;;;4975218;28;20053;-66
2022/11/23 03:53:11;;;;;;;13.85;7.47;;;230.60;2252.80;;;;;;4974528;28;20037;-66
2022/11/23 03:55:36;;;;;;;14.60;8.02;;;230.60;2252.80;;;;;;4983988;28;20046;-63
2022/11/23 03:58:02;;;;;;;11.10;7.40;;;230.60;2252.80;;;;;;4987200;28;20078;-65
2022/11/23 04:00:30;;;;;;;12.55;7.10;;;230.70;2252.80;;;;;;4976736;28;20027;-66
2022/11/23 04:02:56;;;;;;;11.55;7.15;;;230.70;2252.80;;;;;;4984307;28;20034;-66
2022/11/23 04:05:22;;;;;;;11.48;7.20;;;230.60;2252.80;;;;;;4973133;28;20035;-64
2022/11/23 04:07:48;;;;;;;11.18;7.07;;;230.60;2252.80;;;;;;4973535;28;20473;-64
2022/11/23 04:10:16;;;;;;;10.32;7.03;;;230.60;2252.80;;;;;;4974576;28;20023;-64
2022/11/23 04:12:42;;;;;;;13.20;7.15;;;230.60;2252.80;;;;;;4974526;28;20042;-66
2022/11/23 04:15:09;;;;;;;11.95;6.60;;;230.60;2252.80;;;;;;4973614;28;20414;-66
2022/11/23 04:17:34;;;;;;;9.80;6.60;;;230.60;2252.80;;;;;;4973967;28;20034;-66
2022/11/23 04:20:00;;;;;;;10.85;6.43;;;230.60;2252.80;;;;;;4974117;28;20077;-66
2022/11/23 04:22:26;;;;;;;9.43;6.63;;;230.60;2252.80;;;;;;4974267;28;20046;-66
2022/11/23 04:24:52;;;;;;;12.75;7.25;;;230.60;2252.80;;;;;;4975124;28;20516;-65
2022/11/23 04:27:18;;;;;;;11.52;7.22;;;230.80;2252.80;;;;;;4984109;28;20054;-64
2022/11/23 04:29:44;;;;;;;11.70;7.50;;;230.80;2252.80;;;;;;4973431;28;20559;-65
2022/11/23 04:32:09;;;;;;;9.13;6.38;;;230.80;2252.80;;;;;;4973363;28;20031;-64
2022/11/23 04:34:35;;;;;;;9.05;6.05;;;230.80;2252.80;;;;;;4974147;28;20033;-65
2022/11/23 04:37:01;;;;;;;10.18;6.20;;;230.80;2252.80;;;;;;4973939;28;20485;-66
2022/11/23 04:39:27;;;;;;;11.07;6.18;;;230.80;2252.80;;;;;;4974321;28;20062;-65
2022/11/23 04:41:52;;;;;;;10.82;6.70;;;230.80;2252.80;;;;;;4974166;28;20105;-65
2022/11/23 04:44:20;;;;;;;10.85;6.72;;;230.80;2252.80;;;;;;4974070;28;20027;-66
2022/11/23 04:46:46;;;;;;;9.60;6.32;;;230.70;2252.80;;;;;;4973516;28;20027;-65
2022/11/23 04:49:12;;;;;;;10.00;6.80;;;230.60;2252.80;;;;;;4973698;28;20134;-65
2022/11/23 04:51:38;;;;;;;11.18;7.15;;;230.50;2252.80;;;;;;4973745;28;20031;-66
2022/11/23 04:54:04;;;;;;;10.50;6.80;;;230.50;2252.80;;;;;;4973672;28;20031;-66
2022/11/23 04:56:30;;;;;;;10.20;6.70;;;230.50;2252.80;;;;;;4984812;28;20034;-66
2022/11/23 04:58:55;;;;;;;12.13;6.93;;;230.40;2252.80;;;;;;4980048;28;20090;-66
2022/11/23 05:01:21;;;;;;;11.40;7.28;;;230.40;2252.80;;;;;;4973180;28;20043;-65
2022/11/23 05:03:47;;;;;;;12.75;7.85;;;230.40;2252.80;;;;;;4973066;28;20027;-65
2022/11/23 05:06:13;;;;;;;12.98;7.28;;;230.40;2252.80;;;;;;4974064;28;20030;-66
2022/11/23 05:08:39;;;;;;;11.65;7.32;;;230.40;2252.80;;;;;;4973515;28;20042;-66
2022/11/23 05:11:04;;;;;;;11.60;7.22;;;230.40;2252.80;;;;;;4973564;28;20030;-65
2022/11/23 05:13:31;;;;;;;13.18;7.93;;;230.40;2252.80;;;;;;4973565;28;20553;-66
2022/11/23 05:15:56;;;;;;;12.75;8.27;;;230.40;2252.80;;;;;;4973621;28;20114;-65
2022/11/23 05:18:22;;;;;;;11.68;7.40;;;230.40;2252.80;;;;;;4977920;28;20125;-66
2022/11/23 05:20:48;;;;;;;12.75;7.95;;;230.40;2252.80;;;;;;4977342;28;20102;-65
2022/11/23 05:23:14;;;;;;;14.65;8.43;;;230.40;2252.80;;;;;;4977266;28;20046;-64
2022/11/23 05:25:39;;;;;;;14.77;8.57;;;230.40;2252.80;;;;;;4972753;28;20181;-65
2022/11/23 05:28:05;;;;;;;14.02;8.45;;;230.40;2252.80;;;;;;4996746;28;20026;-66
2022/11/23 05:30:31;;;;;;;12.77;8.20;;;230.40;2252.80;;;;;;4979420;28;20038;-65
2022/11/23 05:33:01;;;;;;;14.45;8.70;;;230.40;2252.80;;;;;;4984134;28;20018;-65
2022/11/23 05:35:27;;;;;;;14.15;9.68;;;230.40;2252.80;;;;;;4977417;28;20596;-66
2022/11/23 05:37:53;;;;;;;15.30;8.60;;;230.50;2252.80;;;;;;4975983;28;20473;-66
2022/11/23 05:40:19;;;;;;;14.05;8.70;;;230.50;2252.80;;;;;;4976267;28;20029;-66
2022/11/23 05:42:45;;;;;;;14.02;8.80;;;230.40;2252.80;;;;;;4977207;28;20388;-66
2022/11/23 05:45:10;;;;;;;13.88;9.48;;;230.50;2252.80;;;;;;4975868;28;20425;-66
2022/11/23 05:47:36;;;;;;;14.43;8.85;;;230.50;2252.80;;;;;;4984176;28;20065;-64
2022/11/23 05:50:02;;;;;;;17.73;11.02;;;230.60;2252.80;;;;;;4976465;28;20050;-65
2022/11/23 05:52:28;;;;;;;18.23;11.38;;;230.60;2252.80;;;;;;4973940;28;20046;-65
2022/11/23 05:54:53;;;;;;;16.60;9.85;;;230.60;2252.80;;;;;;4979919;28;20490;-66
2022/11/23 05:57:21;;;;;;;15.98;9.55;;;230.60;2252.80;;;;;;4978617;28;20031;-66
2022/11/23 05:59:48;;;;;;;22.85;13.43;;;230.80;2252.80;;;;;;4985785;28;20086;-65
2022/11/23 06:02:13;;;;;;;91.75;48.33;;;230.80;2252.80;;;;;;4974331;28;20397;-65
2022/11/23 06:04:39;;;;;;;136.00;83.28;;;230.80;2252.80;;;;;;4975026;28;20026;-64
2022/11/23 06:07:05;;;;;;;51.40;28.88;;;230.60;2252.80;;;;;;4975700;28;20058;-65
2022/11/23 06:09:30;;;;;;;91.25;56.88;;;230.50;2252.80;;;;;;4973884;28;20448;-64
2022/11/23 06:11:56;;;;;;;45.10;27.35;;;230.40;2252.80;;;;;;4974171;28;20023;-66
2022/11/23 06:14:22;;;;;;;57.65;32.78;;;230.60;2252.80;;;;;;4973146;28;20034;-64
2022/11/23 06:16:48;;;;;;;41.97;26.45;;;230.60;2252.80;;;;;;4972167;28;20102;-65
2022/11/23 06:19:14;;;;;;;41.50;26.45;;;230.70;2252.80;;;;;;4975778;28;20500;-65
2022/11/23 06:21:40;;;;;;;384.23;195.65;;;230.80;2252.80;;;;;;4974955;28;20027;-65
2022/11/23 06:24:06;;;;;;;55.13;33.53;;;230.70;2252.80;;;;;;4973666;28;20026;-58
2022/11/23 06:26:31;;;;;;;74.80;44.28;;;230.70;2252.80;;;;;;4983683;28;20086;-58
2022/11/23 06:28:57;;;;;;;28.20;19.25;;;230.80;2252.80;;;;;;4979586;28;20325;-64
2022/11/23 06:31:23;;;;;;;25.80;15.30;;;230.70;2252.80;;;;;;4973041;28;20082;-65
2022/11/23 06:33:50;;;;;;;117.03;66.57;;;230.70;2252.80;;;;;;4973249;28;20141;-65
2022/11/23 06:36:16;;;;;;;105.15;61.55;;;230.60;2252.80;;;;;;4972972;28;20556;-65
2022/11/23 06:38:42;;;;;;;42.10;26.67;;;230.70;2252.80;;;;;;4964579;28;20039;-60
2022/11/23 06:41:08;;;;;;;167.35;105.10;;;230.80;2252.80;;;;;;4973055;28;20503;-65
2022/11/23 06:43:34;;;;;;;112.30;69.88;;;230.80;2252.80;;;;;;4972866;28;20035;-66
2022/11/23 06:46:04;;;;;;;164.52;99.80;;;230.80;2252.80;;;;;;4980299;28;20034;-65
2022/11/23 06:48:30;;;;;;;42.85;26.95;;;230.80;2252.80;;;;;;4974829;28;20049;-61
2022/11/23 06:50:59;;;;;;;46.22;26.30;;;230.90;2252.80;;;;;;4960375;28;20020;-59
2022/11/23 06:53:27;;;;;;;54.35;29.88;;;231.00;2252.80;;;;;;4990866;28;20555;-65
2022/11/23 06:55:56;;;;;;;51.95;30.90;;;231.10;2252.80;;;;;;4995501;28;20469;-65
2022/11/23 06:58:22;;;;;;;79.97;40.47;;;230.90;2252.80;;;;;;4993700;28;20031;-66
2022/11/23 07:00:48;;;;;;;71.35;38.60;;;230.90;2252.80;;;;;;4971127;28;20077;-67
2022/11/23 07:03:22;;;;;;;79.75;47.30;;;231.00;2252.80;;;;;;4969880;28;20477;-65
2022/11/23 07:05:51;;;;;;;87.40;51.33;;;231.00;2252.80;;;;;;4976031;28;20027;-64
2022/11/23 07:08:19;;;;;;;87.63;48.60;;;231.20;2252.80;;;;;;4980970;28;20098;-65
2022/11/23 07:10:49;;;;;;;136.50;65.80;;;231.30;2252.80;;;;;;4995572;28;20531;-65
2022/11/23 07:13:16;;;;;;;131.25;62.75;;;231.20;2252.80;;;;;;4995791;28;20034;-67
2022/11/23 07:15:42;;;;;;;73.35;39.78;;;231.20;2252.80;;;;;;4995758;28;20026;-66
2022/11/23 07:18:10;;;;;;;64.25;35.70;;;231.30;2252.80;;;;;;4987157;28;20042;-63
2022/11/23 07:20:38;;;;;;;57.67;33.70;;;231.30;2252.80;;;;;;4973795;28;20055;-65
2022/11/23 07:23:12;;;;;;;64.72;36.30;;;256.00;2252.80;;;;;;4975935;28;20031;-66
2022/11/23 07:25:40;;;;;;;80.13;43.00;;;231.20;2252.80;;;;;;4975856;28;20034;-66
2022/11/23 07:28:07;;;;;;;70.72;39.17;;;231.10;2252.80;;;;;;4958262;28;20174;-64
2022/11/23 07:30:34;;;;;;;55.20;32.83;;;231.20;2252.80;;;;;;4975958;28;20034;-61
2022/11/23 07:33:07;;;;;;;54.00;31.73;;;231.10;2252.80;;;;;;4975689;28;20035;-66
2022/11/23 07:35:33;;;;;;;49.15;29.50;;;231.10;2252.80;;;;;;4960746;28;20154;-66
2022/11/23 07:37:59;;;;;;;55.17;30.05;;;231.00;2252.80;;;;;;4974980;28;20026;-64
2022/11/23 07:40:28;;;;;;;51.05;28.10;;;231.00;2252.80;;;;;;4976607;28;20026;-67
2022/11/23 07:43:03;;;;;;;53.35;29.83;;;231.00;2252.80;;;;;;4976879;28;20035;-67
2022/11/23 07:45:29;;;;;;;55.00;31.00;;;231.10;2252.80;;;;;;4975610;28;20033;-58
2022/11/23 07:48:08;;;;;;;26.63;16.05;;;231.20;2252.80;;;;;;4975271;28;20031;-62
2022/11/23 07:50:37;;;;;;;32.00;18.95;;;231.10;2252.80;;;;;;4975658;28;20043;-64
2022/11/23 07:53:05;;;;;;;34.38;20.38;;;231.00;2252.80;;;;;;4967398;28;20106;-65
2022/11/23 07:55:32;;;;;;;29.05;18.55;;;231.00;2252.80;;;;;;4975354;28;20154;-66
2022/11/23 07:58:01;;;;;;;30.50;17.90;;;231.10;2252.80;;;;;;4975310;28;20038;-63
2022/11/23 08:00:28;;;;;;;45.95;25.55;;;231.10;2252.80;;;;;;4975215;28;20386;-60
2022/11/23 08:02:58;;;;;;;35.47;20.55;;;231.10;2252.80;;;;;;4986255;28;20026;-62
2022/11/23 08:05:25;;;;;;;25.60;15.95;;;231.00;2252.80;;;;;;4994463;28;20542;-65
2022/11/23 08:08:01;;;;;;;28.23;16.83;;;230.90;2252.80;;;;;;4994516;28;20498;-60
2022/11/23 08:10:27;;;;;;;28.40;17.75;;;230.90;2252.80;;;;;;4958909;28;20035;-65
2022/11/23 08:12:57;;;;;;;26.42;17.17;;;231.00;2252.80;;;;;;4963805;28;20369;-61
2022/11/23 08:15:23;;;;;;;25.77;15.23;;;231.00;2252.80;;;;;;4966773;28;20104;-59
2022/11/23 08:17:56;;;;;;;31.10;18.10;;;231.00;2252.80;;;;;;4962170;28;20399;-65
2022/11/23 08:20:22;;;;;;;29.83;18.33;;;231.10;2252.80;;;;;;4973776;28;20031;-62
2022/11/23 08:22:48;;;;;;;27.25;15.05;;;231.20;2252.80;;;;;;4973735;28;20556;-65
2022/11/23 08:25:14;;;;;;;26.80;16.80;;;231.20;2252.80;;;;;;4974524;28;20027;-67
2022/11/23 08:27:40;;;;;;;77.70;37.92;;;231.20;2252.80;;;;;;4973955;28;20031;-64
2022/11/23 08:30:07;;;;;;;36.47;20.73;;;231.30;2252.80;;;;;;4974186;28;20489;-63
2022/11/23 08:32:34;;;;;;;31.55;18.77;;;256.00;2252.80;;;;;;4975142;28;20019;-65
2022/11/23 08:34:59;;;;;;;38.45;21.48;;;256.00;2252.80;;;;;;4974418;28;20062;-66
2022/11/23 08:37:25;;;;;;;30.48;16.40;;;231.30;2252.80;;;;;;4974030;28;20055;-66
2022/11/23 08:39:51;;;;;;;28.02;17.00;;;231.30;2252.80;;;;;;4983684;28;20049;-68
2022/11/23 08:42:17;;;;;;;34.58;21.83;;;231.20;2252.80;;;;;;4955198;28;20868;-66
2022/11/23 08:44:42;;;;;;;18.65;12.90;;;231.20;2252.80;;;;;;4973111;28;20111;-66
2022/11/23 08:47:08;;;;;;;19.95;13.40;;;231.20;2252.80;;;;;;4963657;28;20102;-65
2022/11/23 08:49:34;;;;;;;104.00;52.00;;;231.30;2252.80;;;;;;4952682;28;20043;-63
2022/11/23 08:51:59;;;;;;;102.53;61.67;;;231.30;2252.80;;;;;;4974876;28;20027;-67
2022/11/23 08:54:26;;;;;;;38.83;23.92;;;256.20;2252.80;;;;;;4958938;28;20414;-67
2022/11/23 08:56:52;;;;;;;25.73;17.50;;;256.20;2252.80;;;;;;4977328;28;20035;-67
2022/11/23 08:59:18;;;;;;;22.20;14.18;;;256.30;2252.80;;;;;;4976419;28;20465;-65
2022/11/23 09:01:44;;;;;;;16.33;11.38;;;256.50;2252.80;;;;;;4976432;28;20027;-66
2022/11/23 09:04:10;;;;;;;21.75;15.15;;;256.80;2252.80;;;;;;4977263;28;20488;-66
2022/11/23 09:06:35;;;;;;;21.98;17.55;;;256.60;2252.80;;;;;;4976120;28;20055;-68
2022/11/23 09:09:05;;;;;;;19.63;14.00;;;256.80;2252.80;;;;;;4976703;28;20097;-66
2022/11/23 09:11:33;;;;;;;14.52;9.55;;;256.90;2252.80;;;;;;4977199;28;20465;-68
2022/11/23 09:14:04;;;;;;;19.15;12.20;;;256.90;2252.80;;;;;;4976715;28;20487;-68
2022/11/23 09:16:30;;;;;;;19.77;13.27;;;281.60;2278.40;;;;;;4968317;28;20027;-66
2022/11/23 09:18:56;;;;;;;14.90;10.23;;;281.70;2227.20;;;;;;4958476;28;20063;-68
2022/11/23 09:21:23;;;;;;;13.50;9.07;;;281.60;1920.00;;;;;;4975004;28;20035;-67
2022/11/23 09:23:49;;;;;;;23.05;16.15;;;281.60;2278.40;;;;;;4974636;28;20121;-67
2022/11/23 09:26:15;;;;;;;15.35;11.13;;;281.60;2278.40;;;;;;4976534;28;20113;-66
2022/11/23 09:28:40;;;;;;;17.88;11.20;;;281.60;2278.40;;;;;;4976801;28;20034;-66
2022/11/23 09:31:06;;;;;;;16.75;10.70;;;256.80;2252.80;;;;;;4975875;28;20022;-65
2022/11/23 09:33:32;;;;;;;13.20;9.15;;;256.40;2252.80;;;;;;4975667;28;20452;-67
2022/11/23 09:36:02;;;;;;;40.70;22.98;;;256.10;2252.80;;;;;;4976755;28;20027;-67
2022/11/23 09:38:28;;;;;;;13.70;9.50;;;256.00;2252.80;;;;;;4995505;28;20122;-65
2022/11/23 09:41:26;;;;;;;14.70;10.70;;;256.10;2252.80;;;;;;4990101;28;20050;-67
2022/11/23 09:43:58;;;;;;;11.10;7.97;;;231.10;2252.80;;;;;;4972507;28;20046;-66
2022/11/23 09:46:46;;;;;;;36.92;21.85;;;231.00;2252.80;;;;;;4976220;28;20034;-66
2022/11/23 09:49:20;;;;;;;13.60;10.23;;;256.00;2252.80;;;;;;4956086;29;20097;-67
2022/11/23 09:51:47;;;;;;;17.10;12.02;;;256.20;2252.80;;;;;;4957204;29;20504;-66
2022/11/23 09:54:12;;;;;;;20.40;14.43;;;256.20;2252.80;;;;;;4956950;29;20102;-67
2022/11/23 09:56:41;;;;;;;15.20;9.60;;;256.40;2252.80;;;;;;4971498;28;20031;-64
2022/11/23 09:59:41;;;;;;;17.20;9.85;;;256.20;2252.80;;;;;;4974652;28;20030;-67
2022/11/23 10:02:24;;;;;;;22.92;13.82;;;256.10;2252.80;;;;;;4975754;28;20027;-67
2022/11/23 10:04:54;;;;;;;23.60;13.85;;;231.30;2252.80;;;;;;4975987;28;20026;-67
2022/11/23 10:07:21;;;;;;;14.60;10.60;;;231.20;2252.80;;;;;;4974688;28;20038;-67
2022/11/23 10:09:52;;;;;;;16.63;10.98;;;231.20;2252.80;;;;;;4975346;28;20042;-67
2022/11/23 10:12:41;;;;;;;26.75;17.17;;;231.10;2252.80;;;;;;4957199;28;20031;-66
2022/11/23 10:15:16;;;;;;;33.03;17.35;;;231.10;2252.80;;;;;;4971374;28;20125;-66
2022/11/23 10:17:49;;;;;;;28.38;17.10;;;231.00;2252.80;;;;;;4988150;28;20031;-65
2022/11/23 10:20:42;;;;;;;18.48;13.13;;;231.10;2252.80;;;;;;4968804;28;20504;-62
2022/11/23 10:23:47;;;;;;;15.18;10.18;;;231.10;2252.80;;;;;;4973899;28;20023;-65
2022/11/23 10:26:16;;;;;;;15.60;10.50;;;231.00;2252.80;;;;;;4921175;29;20494;-62
2022/11/23 10:28:43;;;;;;;14.45;9.13;;;230.70;2252.80;;;;;;4922565;29;20055;-58
2022/11/23 10:31:13;;;;;;;19.17;11.30;;;230.60;2252.80;;;;;;4934806;29;20032;-58
2022/11/23 10:33:58;;;;;;;20.38;12.57;;;230.60;2252.80;;;;;;4934512;29;20035;-63
2022/11/23 10:36:23;;;;;;;38.15;22.80;;;230.60;2252.80;;;;;;4901794;29;20055;-62
2022/11/23 10:39:00;;;;;;;18.42;11.68;;;230.70;2252.80;;;;;;4934059;29;20462;-58
2022/11/23 10:41:29;;;;;;;38.88;22.65;;;230.60;2252.80;;;;;;4934311;29;20058;-59
2022/11/23 10:44:16;;;;;;;18.08;11.73;;;230.60;2252.80;;;;;;4934402;29;20043;-65
2022/11/23 10:46:46;;;;;;;30.35;18.13;;;230.40;2252.80;;;;;;4916916;29;20069;-65
2022/11/23 10:49:19;;;;;;;33.78;20.42;;;205.60;2252.80;;;;;;4928722;29;20371;-66
2022/11/23 10:52:04;;;;;;;47.72;29.30;;;205.70;2252.80;;;;;;4932688;29;20520;-66
2022/11/23 10:54:51;;;;;;;24.77;17.15;;;205.60;2252.80;;;;;;4899585;29;20483;-66
2022/11/23 10:57:21;;;;;;;24.73;15.85;;;205.50;2252.80;;;;;;4901058;29;20079;-64
2022/11/23 11:00:13;;;;;;;21.83;14.68;;;205.40;2252.80;;;;;;4932002;29;20031;-67
2022/11/23 11:02:42;;;;;;;22.00;14.73;;;205.30;2252.80;;;;;;4940372;28;20054;-66
2022/11/23 11:05:27;;;;;;;24.73;14.80;;;205.40;2252.80;;;;;;4973198;28;20030;-65
2022/11/23 11:07:56;;;;;;;18.17;11.48;;;205.40;2252.80;;;;;;4974190;28;20023;-67
2022/11/23 11:10:44;;;;;;;13.57;8.73;;;205.40;2252.80;;;;;;4973912;28;20095;-66
2022/11/23 11:13:23;;;;;;;24.77;15.05;;;205.50;2252.80;;;;;;4975532;28;20031;-67
2022/11/23 11:15:56;;;;;;;33.05;19.38;;;205.50;2252.80;;;;;;4973899;28;20029;-66
2022/11/23 11:18:25;;;;;;;32.00;19.92;;;205.50;2252.80;;;;;;4979056;28;20040;-66
2022/11/23 11:21:06;;;;;;;31.85;18.95;;;205.60;2252.80;;;;;;4979745;28;20418;-66
2022/11/23 11:23:37;;;;;;;31.27;17.25;;;230.40;2252.80;;;;;;4975447;28;20433;-66
2022/11/23 11:26:14;;;;;;;23.80;14.40;;;205.60;2252.80;;;;;;4972950;28;20130;-63
2022/11/23 11:28:42;;;;;;;29.75;18.92;;;205.60;2252.80;;;;;;4972367;28;20046;-66
2022/11/23 11:31:32;;;;;;;20.08;12.32;;;205.60;2252.80;;;;;;4972880;28;20022;-66
2022/11/23 11:34:10;;;;;;;15.65;9.95;;;205.60;2252.80;;;;;;4974025;28;20460;-65
2022/11/23 11:37:06;;;;;;;22.10;12.85;;;205.50;2252.80;;;;;;4974298;28;20035;-66
2022/11/23 11:39:45;;;;;;;15.90;9.57;;;205.50;2252.80;;;;;;4972654;28;20058;-65
2022/11/23 11:42:19;;;;;;;14.48;9.45;;;205.60;2252.80;;;;;;4973122;28;20095;-67
2022/11/23 11:44:48;;;;;;;12.60;8.23;;;205.60;2252.80;;;;;;4973499;28;20059;-66
2022/11/23 11:47:36;;;;;;;12.43;7.93;;;205.70;2252.80;;;;;;4975130;28;20046;-65
2022/11/23 11:50:19;;;;;;;25.38;15.43;;;205.50;2252.80;;;;;;4973739;28;20041;-66
2022/11/23 11:52:47;;;;;;;19.83;11.90;;;205.50;2252.80;;;;;;4979299;28;20133;-66
2022/11/23 11:55:24;;;;;;;19.30;12.35;;;205.50;2252.80;;;;;;4971947;28;20102;-66
2022/11/23 11:58:08;;;;;;;13.35;8.27;;;205.40;2252.80;;;;;;4972732;28;20023;-66
2022/11/23 12:00:38;;;;;;;22.33;12.93;;;205.30;2252.80;;;;;;4973896;28;20485;-64
2022/11/23 12:03:36;;;;;;;28.38;16.23;;;205.30;2252.80;;;;;;4971177;28;20058;-67
2022/11/23 12:06:09;;;;;;;26.73;14.32;;;205.20;2252.80;;;;;;4958413;28;20031;-65
2022/11/23 12:09:17;;;;;;;41.45;20.85;;;205.00;2252.80;;;;;;4970816;28;20126;-66
2022/11/23 12:11:43;;;;;;;34.55;18.40;;;205.10;2252.80;;;;;;4896810;29;20097;-67
2022/11/23 12:14:13;;;;;;;23.85;13.30;;;205.10;2252.80;;;;;;4890870;29;20493;-67